Time;durP1;ratioP1;P1;durP2;ratioP2;P2;SDS_P1;SDS_P2;PMS_P1;PMS_P2;Temp;Humidity;BMP_temperature;BMP_pressure;BME280_temperature;BME280_humidity;BME280_pressure;Samples;Min_cycle;Max_cycle;Signal;HPM_P1;HPM_P2
2024/02/18 00:01:58;;;;;;;15.30;9.35;;;7.50;99.90;;;;;;5023825;28;20522;-91
2024/02/18 00:04:23;;;;;;;15.02;10.95;;;7.40;99.90;;;;;;5026366;28;20029;-92
2024/02/18 00:06:49;;;;;;;17.10;11.38;;;7.40;99.90;;;;;;5017803;28;20049;-90
2024/02/18 00:09:15;;;;;;;18.95;9.73;;;7.40;99.90;;;;;;5018489;28;20033;-93
2024/02/18 00:11:40;;;;;;;16.90;10.13;;;7.30;99.90;;;;;;5017439;28;20026;-90
2024/02/18 00:14:06;;;;;;;16.40;10.43;;;7.30;99.90;;;;;;5017342;28;20493;-92
2024/02/18 00:16:32;;;;;;;16.13;9.90;;;7.30;99.90;;;;;;5002358;28;20473;-92
2024/02/18 00:18:57;;;;;;;15.18;9.25;;;7.30;99.90;;;;;;5002087;28;20064;-92
2024/02/18 00:21:23;;;;;;;15.60;10.40;;;7.30;99.90;;;;;;5019553;28;20022;-94
2024/02/18 00:23:49;;;;;;;16.48;10.18;;;7.30;99.90;;;;;;5020381;28;20543;-93
2024/02/18 00:26:14;;;;;;;18.48;11.85;;;7.30;99.90;;;;;;5020016;28;20110;-92
2024/02/18 00:28:40;;;;;;;16.75;9.80;;;7.20;99.90;;;;;;5002965;28;20489;-91
2024/02/18 00:31:06;;;;;;;15.65;9.75;;;7.30;99.90;;;;;;5018988;28;20108;-92
2024/02/18 00:33:32;;;;;;;16.85;9.68;;;7.30;99.90;;;;;;5027773;28;20022;-92
2024/02/18 00:35:57;;;;;;;17.27;11.45;;;7.30;99.90;;;;;;5001906;28;20510;-91
2024/02/18 00:38:23;;;;;;;16.98;10.23;;;7.30;99.90;;;;;;5018841;28;20135;-91
2024/02/18 00:40:49;;;;;;;15.63;9.43;;;7.20;99.90;;;;;;5018836;28;20029;-91
2024/02/18 00:43:14;;;;;;;17.10;10.77;;;7.20;99.90;;;;;;5019863;28;20018;-91
2024/02/18 00:45:40;;;;;;;15.55;9.98;;;7.20;99.90;;;;;;5018477;28;20026;-92
2024/02/18 00:48:06;;;;;;;15.50;9.80;;;7.10;99.90;;;;;;5001742;28;20034;-93
2024/02/18 00:50:32;;;;;;;20.67;11.88;;;7.20;99.90;;;;;;5019247;28;20444;-93
2024/02/18 00:52:57;;;;;;;19.73;10.63;;;7.20;99.90;;;;;;5009221;28;20034;-92
2024/02/18 00:55:23;;;;;;;18.13;10.00;;;7.30;99.90;;;;;;5019087;28;20738;-92
2024/02/18 00:57:48;;;;;;;18.70;11.82;;;7.30;99.90;;;;;;5026802;28;20037;-93
2024/02/18 01:00:14;;;;;;;16.08;10.43;;;7.30;99.90;;;;;;5027687;28;20443;-92
2024/02/18 01:02:40;;;;;;;18.05;10.60;;;7.40;99.90;;;;;;5028335;28;20025;-92
2024/02/18 01:05:06;;;;;;;17.58;10.20;;;7.30;99.90;;;;;;5002736;28;20092;-92
2024/02/18 01:07:31;;;;;;;14.93;9.73;;;7.30;99.90;;;;;;5019103;28;20755;-93
2024/02/18 01:09:57;;;;;;;18.85;10.30;;;7.40;99.90;;;;;;5020054;28;20044;-92
2024/02/18 01:12:23;;;;;;;16.42;9.85;;;7.40;99.90;;;;;;5018729;28;20489;-91
2024/02/18 01:14:48;;;;;;;16.70;9.55;;;7.30;99.90;;;;;;5027853;28;20022;-92
2024/02/18 01:17:14;;;;;;;15.07;9.98;;;7.30;99.90;;;;;;5025079;28;20033;-92
2024/02/18 01:19:40;;;;;;;16.88;10.93;;;7.30;99.90;;;;;;5019665;28;20022;-92
2024/02/18 01:22:05;;;;;;;15.95;10.10;;;7.20;99.90;;;;;;5005625;28;20037;-92
2024/02/18 01:24:31;;;;;;;19.30;10.88;;;7.20;99.90;;;;;;5021097;28;20022;-91
2024/02/18 01:26:57;;;;;;;18.00;9.88;;;7.20;99.90;;;;;;5018266;28;20031;-91
2024/02/18 01:29:22;;;;;;;16.80;11.20;;;7.10;99.90;;;;;;5001790;28;20030;-90
2024/02/18 01:31:49;;;;;;;18.92;11.35;;;7.10;99.90;;;;;;5000457;28;20038;-92
2024/02/18 01:34:15;;;;;;;17.13;11.05;;;7.10;99.90;;;;;;5018974;28;20085;-90
2024/02/18 01:36:41;;;;;;;16.70;10.20;;;7.10;99.90;;;;;;5026376;28;20026;-92
2024/02/18 01:39:07;;;;;;;20.55;11.55;;;7.10;99.90;;;;;;5018537;28;20022;-92
2024/02/18 01:41:33;;;;;;;20.90;12.82;;;7.10;99.90;;;;;;5026592;28;20483;-90
2024/02/18 01:43:59;;;;;;;19.42;11.70;;;7.10;99.90;;;;;;5018697;28;20021;-92
2024/02/18 01:46:25;;;;;;;20.33;11.65;;;7.10;99.90;;;;;;5017063;28;20030;-92
2024/02/18 01:48:51;;;;;;;18.52;11.85;;;7.00;99.90;;;;;;5020796;28;20029;-92
2024/02/18 01:51:17;;;;;;;19.48;11.82;;;7.10;99.90;;;;;;5021818;28;20029;-92
2024/02/18 01:53:43;;;;;;;20.80;11.93;;;7.10;99.90;;;;;;4999426;28;20045;-91
2024/02/18 01:56:10;;;;;;;19.08;11.40;;;7.20;99.90;;;;;;5019007;28;20030;-91
2024/02/18 01:58:36;;;;;;;21.13;11.43;;;7.10;99.90;;;;;;5018519;28;20500;-92
2024/02/18 02:01:03;;;;;;;17.45;11.25;;;7.10;99.90;;;;;;5022483;28;20037;-92
2024/02/18 02:03:30;;;;;;;18.75;11.77;;;7.10;99.90;;;;;;5021318;28;20033;-93
2024/02/18 02:05:58;;;;;;;18.80;11.20;;;7.10;99.90;;;;;;5019007;28;20030;-92
2024/02/18 02:08:26;;;;;;;21.60;14.88;;;7.10;99.90;;;;;;5018164;28;20037;-91
2024/02/18 02:10:52;;;;;;;18.35;10.90;;;7.10;99.90;;;;;;5023781;28;20084;-92
2024/02/18 02:13:17;;;;;;;17.35;11.32;;;7.10;99.90;;;;;;5024175;28;20264;-91
2024/02/18 02:15:43;;;;;;;17.00;10.27;;;7.10;99.90;;;;;;5020473;28;20030;-93
2024/02/18 02:18:09;;;;;;;17.20;11.05;;;7.10;99.90;;;;;;5017523;28;20026;-93
2024/02/18 02:20:34;;;;;;;15.77;10.45;;;7.10;99.90;;;;;;5018213;28;20081;-92
2024/02/18 02:23:00;;;;;;;17.23;11.23;;;7.10;99.90;;;;;;5018485;28;20030;-91
2024/02/18 02:25:26;;;;;;;16.48;10.45;;;7.20;99.90;;;;;;5018431;28;20026;-90
2024/02/18 02:28:28;;;;;;;18.98;10.63;;;7.20;99.90;;;;;;5018694;28;20028;-92
2024/02/18 02:30:55;;;;;;;16.58;10.95;;;7.20;99.90;;;;;;5017656;28;20014;-91
2024/02/18 02:33:22;;;;;;;19.27;10.63;;;7.10;99.90;;;;;;4999819;28;20026;-91
2024/02/18 02:35:48;;;;;;;16.52;10.55;;;7.10;99.90;;;;;;5018135;28;20021;-92
2024/02/18 02:38:14;;;;;;;15.20;10.98;;;7.10;99.90;;;;;;5017596;28;20056;-92
2024/02/18 02:40:40;;;;;;;18.63;10.63;;;7.00;99.90;;;;;;5017224;28;20022;-90
2024/02/18 02:43:06;;;;;;;17.63;11.52;;;7.10;99.90;;;;;;5016017;28;20026;-90
2024/02/18 02:45:32;;;;;;;17.80;11.65;;;7.10;99.90;;;;;;5000019;28;20022;-90
2024/02/18 02:47:58;;;;;;;19.00;12.13;;;7.10;99.90;;;;;;5018315;28;20076;-90
2024/02/18 02:50:24;;;;;;;17.98;12.15;;;7.10;99.90;;;;;;5017354;28;20030;-91
2024/02/18 02:52:49;;;;;;;19.30;10.55;;;7.10;99.90;;;;;;5021156;28;20038;-90
2024/02/18 02:55:15;;;;;;;18.58;11.75;;;7.10;99.90;;;;;;5025648;28;20033;-90
2024/02/18 02:57:41;;;;;;;18.23;11.38;;;7.10;99.90;;;;;;5017874;28;20028;-90
2024/02/18 03:00:10;;;;;;;18.95;11.57;;;7.10;99.90;;;;;;5000117;28;20030;-92
2024/02/18 03:02:37;;;;;;;20.60;11.82;;;7.10;99.90;;;;;;5015068;28;20026;-91
2024/02/18 03:05:09;;;;;;;19.38;10.77;;;7.10;99.90;;;;;;5029611;28;20026;-91
2024/02/18 03:07:35;;;;;;;19.52;12.18;;;7.00;99.90;;;;;;5010049;28;20071;-93
2024/02/18 03:10:01;;;;;;;23.27;12.80;;;7.00;99.90;;;;;;5018494;28;20251;-92
2024/02/18 03:12:26;;;;;;;16.05;9.50;;;7.00;99.90;;;;;;5017435;28;20026;-91
2024/02/18 03:14:52;;;;;;;19.80;12.45;;;7.10;99.90;;;;;;5021010;28;20252;-93
2024/02/18 03:17:50;;;;;;;16.60;9.23;;;7.10;99.90;;;;;;5022098;28;20396;-92
2024/02/18 03:20:16;;;;;;;18.10;10.63;;;7.00;99.90;;;;;;4989785;28;20061;-93
2024/02/18 03:22:42;;;;;;;17.65;10.30;;;7.00;99.90;;;;;;5025883;28;20037;-92
2024/02/18 03:25:08;;;;;;;18.30;11.02;;;7.00;99.90;;;;;;5020911;28;20057;-91
2024/02/18 03:27:33;;;;;;;17.95;11.05;;;7.00;99.90;;;;;;4996532;28;20030;-92
2024/02/18 03:30:00;;;;;;;16.50;10.30;;;7.00;99.90;;;;;;5017250;28;20122;-91
2024/02/18 03:32:25;;;;;;;18.42;10.82;;;7.00;99.90;;;;;;5016557;28;20038;-91
2024/02/18 03:34:51;;;;;;;16.15;9.30;;;7.00;99.90;;;;;;5017327;28;20030;-91
2024/02/18 03:37:17;;;;;;;19.13;10.50;;;7.00;99.90;;;;;;5016660;28;20053;-93
2024/02/18 03:39:42;;;;;;;18.52;11.07;;;7.00;99.90;;;;;;5015464;28;20037;-92
2024/02/18 03:42:08;;;;;;;17.42;11.40;;;7.00;99.90;;;;;;4999825;28;20045;-92
2024/02/18 03:44:34;;;;;;;17.23;10.35;;;7.00;99.90;;;;;;5017292;28;20032;-92
2024/02/18 03:47:00;;;;;;;17.60;10.13;;;7.00;99.90;;;;;;5026173;28;20025;-92
2024/02/18 03:49:26;;;;;;;18.38;11.48;;;7.00;99.90;;;;;;5016359;28;20060;-91
2024/02/18 03:51:51;;;;;;;20.83;10.68;;;7.00;99.90;;;;;;5012559;28;20400;-91
2024/02/18 03:54:18;;;;;;;15.95;10.75;;;7.00;99.90;;;;;;5017001;28;20508;-91
2024/02/18 03:56:44;;;;;;;17.20;11.10;;;7.00;99.90;;;;;;5024443;28;20048;-92
2024/02/18 03:59:14;;;;;;;19.83;11.82;;;6.80;99.90;;;;;;5016962;28;20030;-92
2024/02/18 04:01:39;;;;;;;21.00;13.43;;;6.70;99.90;;;;;;5024656;28;20106;-92
2024/02/18 04:04:05;;;;;;;20.60;11.65;;;6.70;99.90;;;;;;4999234;28;20058;-92
2024/02/18 04:06:30;;;;;;;21.33;10.75;;;6.70;99.90;;;;;;5015092;28;20045;-90
2024/02/18 04:08:56;;;;;;;17.10;11.50;;;6.60;99.90;;;;;;5018170;28;20094;-92
2024/02/18 04:11:22;;;;;;;22.08;12.93;;;6.70;99.90;;;;;;5024572;28;20037;-92
2024/02/18 04:13:47;;;;;;;19.90;11.52;;;6.60;99.90;;;;;;5007316;28;20029;-93
2024/02/18 04:16:13;;;;;;;22.35;12.18;;;6.60;99.90;;;;;;5016864;28;20080;-92
2024/02/18 04:18:39;;;;;;;21.98;11.95;;;6.60;99.90;;;;;;5015873;28;20025;-90
2024/02/18 04:21:04;;;;;;;24.35;14.20;;;6.50;99.90;;;;;;5021264;28;20597;-92
2024/02/18 04:23:30;;;;;;;23.50;12.77;;;6.60;99.90;;;;;;5015538;28;20038;-91
2024/02/18 04:25:56;;;;;;;25.50;14.07;;;6.60;99.90;;;;;;5016151;28;20120;-92
2024/02/18 04:28:21;;;;;;;23.60;12.85;;;6.60;99.90;;;;;;5016731;28;20033;-91
2024/02/18 04:30:47;;;;;;;25.17;15.73;;;6.60;99.90;;;;;;5016218;28;20059;-93
2024/02/18 04:33:12;;;;;;;27.83;14.95;;;6.50;99.90;;;;;;5015952;28;20063;-92
2024/02/18 04:35:38;;;;;;;23.00;13.82;;;6.60;99.90;;;;;;5000235;28;20430;-94
2024/02/18 04:38:04;;;;;;;26.98;13.65;;;6.60;99.90;;;;;;5017212;28;20065;-92
2024/02/18 04:40:30;;;;;;;23.00;13.70;;;6.50;99.90;;;;;;5016966;28;20021;-92
2024/02/18 04:42:56;;;;;;;22.33;12.05;;;6.60;99.90;;;;;;5016738;28;20053;-92
2024/02/18 04:45:21;;;;;;;22.90;12.07;;;6.50;99.90;;;;;;5015953;28;20026;-91
2024/02/18 04:47:47;;;;;;;23.38;14.85;;;6.60;99.90;;;;;;5018340;28;20037;-92
2024/02/18 04:50:13;;;;;;;25.48;13.45;;;6.60;99.90;;;;;;5016123;28;20049;-92
2024/02/18 04:52:39;;;;;;;22.33;14.65;;;6.60;99.90;;;;;;5017999;28;20061;-92
2024/02/18 04:55:06;;;;;;;19.48;12.98;;;6.50;99.90;;;;;;5020426;28;20203;-91
2024/02/18 04:57:31;;;;;;;25.65;12.18;;;6.60;99.90;;;;;;5016026;28;20034;-91
2024/02/18 04:59:57;;;;;;;22.92;12.55;;;6.50;99.90;;;;;;5015931;28;20022;-92
2024/02/18 05:02:23;;;;;;;24.52;13.43;;;6.50;99.90;;;;;;4999549;28;20026;-92
2024/02/18 05:04:48;;;;;;;19.85;11.63;;;6.50;99.90;;;;;;5019350;28;20556;-91
2024/02/18 05:07:14;;;;;;;21.25;12.40;;;6.60;99.90;;;;;;5019197;28;20037;-92
2024/02/18 05:09:40;;;;;;;21.45;13.02;;;6.50;99.90;;;;;;5009668;28;20032;-91
2024/02/18 05:12:06;;;;;;;22.20;11.80;;;6.60;99.90;;;;;;5009065;28;20032;-93
2024/02/18 05:14:32;;;;;;;19.38;12.82;;;6.60;99.90;;;;;;5019051;28;20030;-91
2024/02/18 05:16:59;;;;;;;21.35;11.52;;;6.60;99.90;;;;;;5019197;28;20022;-92
2024/02/18 05:19:28;;;;;;;19.70;10.35;;;6.70;99.90;;;;;;5019332;28;20102;-91
2024/02/18 05:21:54;;;;;;;21.48;12.27;;;6.70;99.90;;;;;;5017679;28;20045;-91
2024/02/18 05:24:21;;;;;;;19.30;11.60;;;6.70;99.90;;;;;;5000800;28;20025;-91
2024/02/18 05:26:46;;;;;;;18.83;10.75;;;6.70;99.90;;;;;;5017519;28;20739;-91
2024/02/18 05:29:12;;;;;;;19.13;10.48;;;6.70;99.90;;;;;;5018606;28;20026;-91
2024/02/18 05:31:38;;;;;;;18.48;11.52;;;6.70;99.90;;;;;;5018459;28;20042;-93
2024/02/18 05:34:03;;;;;;;16.23;10.05;;;6.60;99.90;;;;;;5001356;28;20557;-91
2024/02/18 05:36:29;;;;;;;17.40;11.02;;;6.60;99.90;;;;;;5026602;28;20514;-92
2024/02/18 05:38:55;;;;;;;17.52;10.60;;;6.70;99.90;;;;;;5018348;28;20109;-92
2024/02/18 05:41:20;;;;;;;17.17;10.80;;;6.60;99.90;;;;;;5002205;28;20072;-92
2024/02/18 05:43:47;;;;;;;13.57;9.30;;;6.70;99.90;;;;;;5019564;28;20030;-91
2024/02/18 05:46:13;;;;;;;15.70;9.18;;;6.70;99.90;;;;;;5020246;28;20459;-92
2024/02/18 05:48:39;;;;;;;17.88;10.65;;;6.60;99.90;;;;;;5026591;28;20041;-92
2024/02/18 05:51:06;;;;;;;18.85;10.38;;;6.60;99.90;;;;;;5017963;28;20048;-92
2024/02/18 05:53:31;;;;;;;17.52;11.93;;;6.50;99.90;;;;;;5020167;28;20109;-92
2024/02/18 05:55:57;;;;;;;16.73;11.43;;;6.60;99.90;;;;;;5027299;28;20053;-93
2024/02/18 05:58:23;;;;;;;15.55;9.25;;;6.60;99.90;;;;;;5002663;28;20050;-91
2024/02/18 06:00:49;;;;;;;15.23;10.00;;;6.60;99.90;;;;;;5020913;28;20400;-91
2024/02/18 06:03:16;;;;;;;16.88;9.82;;;6.50;99.90;;;;;;5023954;28;20026;-92
2024/02/18 06:05:41;;;;;;;13.70;8.95;;;6.60;99.90;;;;;;5027999;28;20028;-92
2024/02/18 06:08:08;;;;;;;18.02;9.43;;;6.50;99.90;;;;;;5027497;28;20029;-93
2024/02/18 06:10:33;;;;;;;15.77;9.38;;;6.40;99.90;;;;;;5027279;28;20021;-92
2024/02/18 06:13:02;;;;;;;13.20;8.98;;;6.50;99.90;;;;;;5018502;28;20030;-92
2024/02/18 06:15:27;;;;;;;15.30;9.45;;;6.50;99.90;;;;;;5017301;28;20029;-91
2024/02/18 06:17:57;;;;;;;16.05;8.82;;;6.40;99.90;;;;;;5018269;28;20034;-92
2024/02/18 06:20:24;;;;;;;18.65;10.13;;;6.40;99.90;;;;;;5022914;28;20029;-92
2024/02/18 06:22:49;;;;;;;16.05;10.32;;;6.40;99.90;;;;;;5018631;28;20022;-92
2024/02/18 06:25:16;;;;;;;13.98;8.68;;;6.40;99.90;;;;;;5018942;28;20022;-93
2024/02/18 06:27:42;;;;;;;14.95;9.50;;;6.40;99.90;;;;;;5019033;28;20096;-94
2024/02/18 06:30:08;;;;;;;15.35;8.63;;;6.40;99.90;;;;;;5019180;28;20029;-92
2024/02/18 06:32:34;;;;;;;14.82;8.60;;;6.30;99.90;;;;;;5001746;28;20045;-91
2024/02/18 06:35:01;;;;;;;14.07;9.32;;;6.30;99.90;;;;;;5021254;28;20022;-90
2024/02/18 06:37:27;;;;;;;14.10;8.77;;;6.30;99.90;;;;;;5026311;28;20032;-92
2024/02/18 06:39:53;;;;;;;14.25;9.13;;;6.20;99.90;;;;;;5000787;28;20022;-91
2024/02/18 06:42:19;;;;;;;15.35;8.55;;;6.30;99.90;;;;;;5018709;28;20053;-92
2024/02/18 06:44:44;;;;;;;19.10;9.93;;;6.30;99.90;;;;;;5018621;28;20038;-90
2024/02/18 06:47:10;;;;;;;15.82;9.95;;;6.30;99.90;;;;;;4999976;28;20056;-91
2024/02/18 06:49:35;;;;;;;14.35;7.68;;;6.30;99.90;;;;;;5019982;28;20026;-91
2024/02/18 06:52:01;;;;;;;18.85;10.90;;;6.40;99.90;;;;;;5025440;28;20029;-90
2024/02/18 06:54:26;;;;;;;12.65;9.25;;;6.40;99.90;;;;;;5017401;28;20025;-93
2024/02/18 06:56:52;;;;;;;13.45;9.13;;;6.40;99.90;;;;;;5025847;28;20033;-90
2024/02/18 06:59:19;;;;;;;13.88;8.07;;;6.50;99.90;;;;;;5017421;28;20408;-93
2024/02/18 07:01:44;;;;;;;12.95;9.93;;;6.50;99.90;;;;;;5025951;28;20519;-92
2024/02/18 07:04:10;;;;;;;10.73;6.65;;;6.60;99.90;;;;;;5007338;28;20046;-93
2024/02/18 07:06:37;;;;;;;12.85;9.50;;;6.70;99.90;;;;;;5032765;28;20212;-92
2024/02/18 07:09:03;;;;;;;12.80;8.25;;;6.70;99.90;;;;;;5024280;28;20055;-92
2024/02/18 07:11:29;;;;;;;16.85;9.40;;;6.80;99.90;;;;;;5029744;28;20029;-92
2024/02/18 07:13:55;;;;;;;15.80;9.18;;;6.80;99.90;;;;;;5027272;28;20029;-92
2024/02/18 07:16:21;;;;;;;15.73;9.68;;;6.90;99.90;;;;;;5013476;28;20030;-91
2024/02/18 07:18:47;;;;;;;16.00;9.38;;;6.90;99.90;;;;;;5019517;28;20032;-93
2024/02/18 07:21:14;;;;;;;14.85;8.98;;;7.00;99.90;;;;;;5018412;28;20026;-92
2024/02/18 07:23:47;;;;;;;12.00;7.65;;;7.10;99.90;;;;;;4996661;28;20054;-92
2024/02/18 07:26:14;;;;;;;15.85;10.02;;;7.10;99.90;;;;;;5013377;28;20018;-90
2024/02/18 07:28:40;;;;;;;17.25;9.75;;;7.10;99.90;;;;;;5021610;28;20025;-90
2024/02/18 07:31:06;;;;;;;15.55;9.32;;;7.20;99.90;;;;;;5013276;28;20108;-89
2024/02/18 07:33:32;;;;;;;15.45;9.23;;;7.20;99.90;;;;;;5025456;28;20476;-91
2024/02/18 07:35:58;;;;;;;15.35;9.60;;;7.30;99.90;;;;;;5024484;28;20026;-90
2024/02/18 07:38:24;;;;;;;17.85;10.77;;;7.20;99.90;;;;;;5002313;28;20026;-90
2024/02/18 07:40:49;;;;;;;16.13;10.38;;;7.30;99.90;;;;;;5014980;28;20524;-90
2024/02/18 07:43:15;;;;;;;15.68;9.48;;;7.30;99.90;;;;;;5015593;28;20496;-91
2024/02/18 07:45:41;;;;;;;13.65;8.52;;;7.40;99.90;;;;;;5024638;28;20032;-91
2024/02/18 07:48:07;;;;;;;18.27;10.35;;;7.40;99.90;;;;;;5024229;28;20036;-90
2024/02/18 07:50:33;;;;;;;21.30;11.27;;;7.50;99.90;;;;;;5016065;28;20077;-91
2024/02/18 07:52:59;;;;;;;21.45;10.75;;;7.50;99.90;;;;;;5022238;28;20102;-89
2024/02/18 07:55:26;;;;;;;21.52;11.57;;;7.50;99.90;;;;;;5016900;28;20044;-90
2024/02/18 07:57:51;;;;;;;21.63;10.90;;;7.50;99.90;;;;;;5016161;28;20639;-90
2024/02/18 08:00:17;;;;;;;26.40;11.90;;;7.50;99.90;;;;;;5015974;28;20102;-93
2024/02/18 08:02:43;;;;;;;19.17;12.48;;;7.50;99.90;;;;;;5015785;28;20044;-89
2024/02/18 08:05:08;;;;;;;19.70;10.77;;;7.60;99.90;;;;;;5014870;28;20097;-89
2024/02/18 08:07:35;;;;;;;20.90;12.25;;;7.60;99.90;;;;;;5011960;28;20076;-90
2024/02/18 08:10:01;;;;;;;20.45;11.20;;;7.60;99.90;;;;;;5014599;28;20021;-89
2024/02/18 08:12:27;;;;;;;20.88;11.90;;;7.60;99.90;;;;;;4997476;28;20450;-88
2024/02/18 08:14:52;;;;;;;19.98;10.63;;;7.70;99.90;;;;;;5014666;28;20038;-89
2024/02/18 08:17:18;;;;;;;20.83;11.75;;;7.70;99.90;;;;;;4996978;28;20053;-91
2024/02/18 08:19:44;;;;;;;24.40;12.05;;;7.80;99.90;;;;;;5018783;28;20129;-91
2024/02/18 08:22:09;;;;;;;19.55;11.25;;;7.80;99.90;;;;;;5016474;28;20022;-91
2024/02/18 08:24:35;;;;;;;21.38;11.93;;;7.80;99.90;;;;;;5016900;28;20460;-91
2024/02/18 08:27:00;;;;;;;24.13;13.60;;;7.80;99.90;;;;;;5015731;28;20030;-89
2024/02/18 08:29:27;;;;;;;22.88;11.20;;;7.80;99.90;;;;;;5005668;28;20030;-93
2024/02/18 08:31:54;;;;;;;22.40;11.82;;;7.90;99.90;;;;;;5015627;28;20025;-87
2024/02/18 08:34:20;;;;;;;19.52;10.45;;;8.00;99.90;;;;;;5011897;28;20026;-91
2024/02/18 08:36:45;;;;;;;19.88;11.65;;;8.00;99.90;;;;;;5019025;28;20022;-92
2024/02/18 08:39:11;;;;;;;25.13;12.48;;;8.10;99.90;;;;;;5002703;28;20076;-91
2024/02/18 08:41:37;;;;;;;23.85;13.20;;;8.10;99.90;;;;;;5022440;28;20514;-90
2024/02/18 08:44:03;;;;;;;22.85;11.00;;;8.10;99.90;;;;;;5016954;28;20042;-91
2024/02/18 08:46:29;;;;;;;19.15;12.02;;;8.20;99.90;;;;;;5018814;28;20117;-91
2024/02/18 08:48:54;;;;;;;22.48;10.90;;;8.20;99.90;;;;;;4998899;28;20033;-91
2024/02/18 08:51:20;;;;;;;24.77;11.43;;;8.30;99.90;;;;;;4973417;28;20029;-91
2024/02/18 08:53:52;;;;;;;18.25;11.25;;;8.30;99.90;;;;;;4990356;28;20473;-92
2024/02/18 08:56:18;;;;;;;21.83;12.45;;;8.30;99.90;;;;;;5016361;28;20061;-92
2024/02/18 08:58:45;;;;;;;19.27;11.13;;;8.40;99.90;;;;;;4984782;28;20065;-92
2024/02/18 09:01:11;;;;;;;21.23;11.13;;;8.50;99.90;;;;;;4992430;28;20030;-90
2024/02/18 09:03:36;;;;;;;20.35;12.18;;;8.50;99.90;;;;;;4973581;28;20168;-91
2024/02/18 09:06:02;;;;;;;21.75;12.85;;;8.50;99.90;;;;;;4975612;28;20120;-89
2024/02/18 09:08:37;;;;;;;21.02;12.32;;;8.60;99.90;;;;;;5008680;28;20740;-90
2024/02/18 09:11:03;;;;;;;17.00;11.07;;;8.70;99.90;;;;;;4983916;28;20514;-91
2024/02/18 09:13:29;;;;;;;19.92;9.50;;;8.80;99.90;;;;;;4983317;28;20026;-91
2024/02/18 09:15:54;;;;;;;29.42;12.98;;;8.90;99.90;;;;;;4973908;28;20025;-90
2024/02/18 09:18:20;;;;;;;20.55;9.85;;;9.00;99.90;;;;;;4983512;28;20030;-92
2024/02/18 09:20:46;;;;;;;18.10;10.63;;;9.10;99.90;;;;;;4984141;28;20313;-92
2024/02/18 09:23:11;;;;;;;17.55;10.43;;;9.20;99.90;;;;;;5015199;28;20029;-92
2024/02/18 09:25:37;;;;;;;17.13;9.85;;;9.20;99.90;;;;;;4978406;28;20127;-90
2024/02/18 09:28:03;;;;;;;18.02;9.57;;;9.30;99.90;;;;;;4957269;28;20030;-92
2024/02/18 09:30:28;;;;;;;17.15;10.10;;;9.30;99.90;;;;;;4982129;28;20078;-90
2024/02/18 09:32:54;;;;;;;15.77;9.27;;;9.20;99.90;;;;;;4977758;28;20965;-92
2024/02/18 09:35:20;;;;;;;15.85;9.13;;;9.30;99.90;;;;;;5015214;28;20314;-91
2024/02/18 09:37:45;;;;;;;16.30;9.00;;;9.30;99.90;;;;;;4989084;28;20080;-89
2024/02/18 09:40:12;;;;;;;14.80;8.57;;;9.40;99.90;;;;;;4983092;28;20515;-89
2024/02/18 09:42:44;;;;;;;17.05;8.25;;;9.40;99.90;;;;;;5019876;28;20017;-90
2024/02/18 09:45:16;;;;;;;16.38;9.57;;;9.40;99.90;;;;;;4997654;28;20021;-90
2024/02/18 09:47:48;;;;;;;17.33;9.07;;;9.30;99.90;;;;;;5016459;28;20068;-91
2024/02/18 09:50:15;;;;;;;18.25;9.73;;;9.30;99.90;;;;;;4998375;28;20057;-91
2024/02/18 09:52:41;;;;;;;17.75;9.30;;;9.40;99.90;;;;;;5017340;28;20120;-91
2024/02/18 09:55:11;;;;;;;18.90;9.57;;;9.50;99.90;;;;;;5000662;28;20040;-90
2024/02/18 09:57:40;;;;;;;16.05;8.68;;;9.70;99.90;;;;;;5014684;28;20032;-91
2024/02/18 10:00:08;;;;;;;18.80;9.23;;;9.70;99.90;;;;;;5030240;28;20053;-92
2024/02/18 10:02:34;;;;;;;13.50;7.68;;;9.90;99.60;;;;;;5024762;28;20033;-90
2024/02/18 10:05:00;;;;;;;14.55;7.63;;;9.80;99.00;;;;;;5023903;28;20018;-91
2024/02/18 10:07:26;;;;;;;17.02;8.48;;;9.90;99.00;;;;;;5030703;28;20032;-91
2024/02/18 10:09:52;;;;;;;17.42;8.10;;;9.80;98.60;;;;;;5023252;28;20040;-92
2024/02/18 10:12:19;;;;;;;13.60;7.13;;;9.80;98.10;;;;;;5036277;28;20030;-90
2024/02/18 10:15:00;;;;;;;18.77;8.52;;;10.00;98.20;;;;;;5004888;28;20056;-91
2024/02/18 10:17:27;;;;;;;13.05;7.28;;;9.90;97.60;;;;;;5033684;28;20021;-92
2024/02/18 10:19:52;;;;;;;17.33;8.68;;;10.00;97.30;;;;;;5009692;28;20037;-91
2024/02/18 10:22:25;;;;;;;14.07;7.25;;;10.20;96.30;;;;;;5024073;28;20042;-91
2024/02/18 10:24:51;;;;;;;11.45;7.22;;;10.30;96.50;;;;;;5034177;28;20025;-92
2024/02/18 10:27:18;;;;;;;11.88;7.03;;;10.10;96.40;;;;;;5032528;28;20109;-91
2024/02/18 10:29:48;;;;;;;14.15;7.40;;;10.20;95.00;;;;;;5027739;28;20033;-91
2024/02/18 10:32:15;;;;;;;13.20;7.90;;;10.20;93.20;;;;;;5008970;28;20026;-92
2024/02/18 10:34:42;;;;;;;13.60;8.48;;;10.20;93.70;;;;;;5011377;28;20083;-91
2024/02/18 10:37:12;;;;;;;12.70;7.47;;;10.00;96.70;;;;;;5034302;28;20052;-93
2024/02/18 10:39:40;;;;;;;13.27;7.63;;;10.00;95.60;;;;;;5021335;28;20030;-94
2024/02/18 10:42:09;;;;;;;13.88;8.55;;;10.20;95.90;;;;;;5004716;28;20026;-90
2024/02/18 10:44:38;;;;;;;14.05;8.20;;;10.20;96.40;;;;;;5031295;28;20047;-93
2024/02/18 10:47:07;;;;;;;17.48;8.20;;;10.20;97.30;;;;;;5027689;28;20073;-91
2024/02/18 10:49:40;;;;;;;15.57;8.65;;;10.20;95.80;;;;;;5020156;28;20036;-91
2024/02/18 10:52:16;;;;;;;15.95;9.50;;;10.10;96.10;;;;;;5020797;28;20080;-94
2024/02/18 10:54:47;;;;;;;15.02;9.02;;;10.00;98.20;;;;;;5019917;28;20026;-93
2024/02/18 10:57:16;;;;;;;16.60;9.15;;;10.10;99.10;;;;;;4996837;28;20021;-91
2024/02/18 11:00:10;;;;;;;15.00;8.20;;;10.10;98.20;;;;;;5039260;28;20036;-91
2024/02/18 11:02:36;;;;;;;14.60;8.20;;;10.20;96.80;;;;;;5020929;28;20026;-93
2024/02/18 11:05:03;;;;;;;13.45;7.93;;;10.40;98.60;;;;;;5030848;28;20022;-90
2024/02/18 11:07:29;;;;;;;15.25;8.70;;;10.60;97.60;;;;;;5023620;28;20033;-92
2024/02/18 11:09:56;;;;;;;15.30;8.13;;;10.80;96.10;;;;;;5013358;28;20026;-92
2024/02/18 11:12:22;;;;;;;16.10;12.52;;;10.80;96.70;;;;;;5029049;28;20046;-92
2024/02/18 11:14:48;;;;;;;27.20;22.92;;;10.90;93.90;;;;;;5023378;28;20030;-93
2024/02/18 11:17:16;;;;;;;13.88;8.73;;;10.80;94.70;;;;;;5026730;28;20030;-90
2024/02/18 11:19:43;;;;;;;22.27;12.77;;;10.60;96.30;;;;;;5026115;28;20022;-91
2024/02/18 11:22:09;;;;;;;15.90;9.88;;;10.60;96.90;;;;;;5025370;28;20029;-90
2024/02/18 11:24:35;;;;;;;17.35;9.70;;;10.60;97.60;;;;;;5024104;28;20392;-91
2024/02/18 11:27:01;;;;;;;16.95;8.88;;;10.70;97.00;;;;;;5027185;28;20033;-92
2024/02/18 11:29:47;;;;;;;13.88;8.80;;;10.70;95.00;;;;;;5022265;28;20081;-91
2024/02/18 11:32:14;;;;;;;16.08;7.60;;;10.70;95.30;;;;;;5021939;28;20552;-92
2024/02/18 11:34:41;;;;;;;14.77;8.70;;;10.80;94.80;;;;;;5004823;28;20037;-91
2024/02/18 11:37:27;;;;;;;15.63;7.93;;;10.70;96.70;;;;;;5026119;28;20099;-90
2024/02/18 11:40:04;;;;;;;12.60;8.65;;;10.90;95.10;;;;;;4997375;28;20526;-92
2024/02/18 11:42:30;;;;;;;17.85;9.35;;;10.80;94.70;;;;;;5032431;28;20085;-92
2024/02/18 11:45:10;;;;;;;14.20;8.60;;;10.80;96.80;;;;;;5022245;28;20527;-92
2024/02/18 11:47:37;;;;;;;12.80;8.00;;;10.70;95.80;;;;;;5011667;28;20041;-92
2024/02/18 11:50:04;;;;;;;11.80;8.50;;;10.80;95.90;;;;;;5025035;28;20036;-90
2024/02/18 11:52:30;;;;;;;11.65;6.47;;;10.70;94.30;;;;;;5003961;28;20034;-91
2024/02/18 11:54:56;;;;;;;9.13;6.35;;;10.80;93.90;;;;;;5020308;28;20377;-92
2024/02/18 11:57:21;;;;;;;10.13;5.80;;;10.90;90.90;;;;;;5019849;28;20053;-91
2024/02/18 11:59:47;;;;;;;11.65;7.07;;;10.90;90.40;;;;;;5020882;28;20030;-93
2024/02/18 12:02:17;;;;;;;11.93;7.85;;;10.80;91.80;;;;;;5003783;28;20026;-90
2024/02/18 12:04:43;;;;;;;14.35;7.22;;;10.80;93.30;;;;;;5014000;28;20092;-92
2024/02/18 12:07:10;;;;;;;14.20;8.82;;;10.80;94.30;;;;;;5007579;28;20072;-91
2024/02/18 12:09:36;;;;;;;15.07;8.80;;;10.80;96.60;;;;;;5021402;28;20157;-93
2024/02/18 12:12:02;;;;;;;15.65;8.52;;;11.00;95.90;;;;;;5035352;28;20045;-92
2024/02/18 12:14:29;;;;;;;14.77;8.57;;;11.10;95.20;;;;;;5027021;28;20026;-92
2024/02/18 12:16:55;;;;;;;13.40;9.20;;;11.20;96.40;;;;;;5025303;28;20309;-90
2024/02/18 12:19:21;;;;;;;16.48;9.88;;;11.10;95.80;;;;;;5022636;28;20018;-91
2024/02/18 12:21:53;;;;;;;20.67;12.38;;;11.00;95.30;;;;;;5047343;28;20057;-94
2024/02/18 12:24:20;;;;;;;19.15;11.35;;;11.00;95.80;;;;;;5025044;28;20049;-92
2024/02/18 12:26:46;;;;;;;19.42;10.50;;;11.00;94.40;;;;;;5024191;28;20108;-91
2024/02/18 12:29:12;;;;;;;14.38;9.27;;;11.00;94.30;;;;;;5023502;28;20081;-92
2024/02/18 12:31:41;;;;;;;13.95;9.18;;;11.00;95.80;;;;;;5016685;28;20545;-91
2024/02/18 12:34:07;;;;;;;18.20;10.23;;;11.10;95.50;;;;;;5039183;28;20025;-91
2024/02/18 12:36:33;;;;;;;18.92;10.10;;;11.10;94.20;;;;;;5023412;28;20026;-93